Airfield :
LOGIN :

Register | Disclaimer

   EN    FR    IT 

 










Legend :    VFR   Marginal VFR   IFR   Intensive IFR   Very Intensive IFR
Visi :
Ceiling :
>= 8 km
>= 3000ft
5 to 8 km
1000 to 3000 ft
1500m to 5 km
500 to 1000 ft
800 to 1500m
200 to 500 ft
< 800m
< 200 ft
Symbols :   Thunderstorms  Fog  Heavy snow  Heavy precipitations  Wind > 20 kt
SIGMETs :     Misc.  Thunderstorms  Icing  Turbulence  Mountain Waves  Volcanic Ashes







- Airport Elevation : 885 ft
- IATA code : BAS
- Download approach charts


LFSB - Bale-Mulhouse

CURRENT METAR :
  • 222030Z 15004KT 9999 FEW030 FEW050TCU BKN110 BKN210 20/17 Q1015 NOSIG

EXPIRED METARs :
  • 222000Z 24004KT 9999 FEW028 FEW050TCU BKN110 BKN210 20/18 Q1014 NOSIG
  • 221930Z 13008KT 9999 VCSH FEW028 FEW050CB BKN100 21/18 Q1014 TEMPO SHRA
  • 221900Z 16005KT 9999 VCSH FEW028 FEW050CB BKN100 21/18 Q1014 TEMPO SHRA
  • 221830Z VRB03KT 9999 VCSH FEW036 FEW060TCU BKN120 22/18 Q1014 TEMPO SHRA
  • 221800Z 20004KT 9999 VCSH FEW036 FEW060TCU BKN100 23/18 Q1014 TEMPO SHRA

TAF TAF LFSB
Valid from the 22 at 18:00 until the 23 at 18:00 UTC


221700Z 2218/2318 21005KT 9999 SCT045 BKN110
TEMPO 2218/2303 27010KT 4000 SHRA FEW030CB SCT040TCU BKN050
PROB30
TEMPO 2218/2220 24015G30KT TSRA
BECMG 2306/2309 27010KT
Met : +33 3 89 90 31 11
No reported NOTAMs for that airfield.
1 SIGMET reported for the Reims FIR (LFEE) :
 
Embedded thunderstorms
LFEE SIGMET 3 VALID 222000/222200 LFPW
LFEE REIMS FIR/UIR EMBD TS FCST ENTIRE FIR TOP FL380 MOV NE 25KT NC=



MET'MAP, your aeronautical weather chart ! - Copyright ORBIFLY December 2007 - Disclaimer

ORBIFLY MET'MAP TEAM :

Programming & Development : Alexandra Zaïnal
Concept & Development : Baudouin d'Aumeries
Co-Development & Prog : Marc-Olivier Méhu
Technical & hardware support : Manuel Goepfert

Contact : metmap@orbifly.com




SOURCES & CREDITS :

   NOAA